Latest METARs, TAFs and NOTAMs for TTPP


---------------------------------------------------------------------------
	(OBSERVATIONS)
TTPP 211700Z 10012KT 7000 -SHRA VCSH SCT018 27/25 Q1012 NOSIG
    RMK JP SW TO W TO NW=
TTPP 211600Z 12007KT 3000 -SHRA VCSH BKN018 28/26 Q1012 NOSIG
    RMK VCSH N/NW/NE=
TTPP 211500Z 10007KT 5000 -SHRA VCSH BKN018 27/25 Q1013 NOSIG
    RMK VCSH E/SE/NW=
TTPP 211435Z 09012KT 5000 -SHRA BKN018 28/24 Q1013 NOSIG=
---------------------------------------------------------------------------
	(TERMINAL AREA FORECAST)
TTPP 211600Z 2118/2218 09015KT SCT018
    TEMPO 2118/2121 5000 SHRA/VCSH FEW010TCU SCT015
    BECMG 2200/2202 09005KT FEW015
    PROB40 TEMPO 2208/2212 5000 SHRA/VCSH BKN015
    BECMG 2211/2213 10015KT SCT015=
---------------------------------------------------------------------------
	(NOTAMS)


TTPP A1188/17 INSTRUMENT APPROACH PROCEDURE "NDB/ILS RWY 10"
    NOT AVBL. 29 AUG 16:00 2017 UNTIL 29 NOV 23:59 2017 ESTIMATED.
    CREATED: 29 AUG 16:02 2017

TTPP A1189/17 INSTRUMENT APPROACH PROCEDURE "NDB RWY 10" NOT
    AVBL. 29 AUG 16:00 2017 UNTIL 29 NOV 23:59 2017 ESTIMATED.
    CREATED: 29 AUG 16:02 2017

TTPP A1441/17 PRKG PSN 12 ON THE SOUTH APRON CLSD. 28 SEP 12:30
    2017 UNTIL 31 DEC 04:00 2017. CREATED: 28 SEP 12:36 2017

TTPP A1456/17 ALL ACFT TO BE TOWED IN AND TOWED OUT OF GATES
    1 AND 2 ON THE SOUTH APRON. 01 OCT 03:40 2017 UNTIL 29 DEC
    04:00 2017. CREATED: 01 OCT 03:45 2017

TTPP A1475/17 MODEL ACFT DISPLAY AT FREDERICK SETTLEMENT WITHIN
    A RADIUS OF 1KM CENTRED ON 103538N0612337W. CTN ADZ. SFC
    - 400FT, SR-SS, 02 OCT 19:30 2017 UNTIL 02 JAN 23:59 2018
    ESTIMATED. CREATED: 02 OCT 19:32 2017

TTPP A1529/17 PAPI RWY 28 ON TEST. PILOTS IN COMMAND OF AIRCRAFT
    USING RWY 28 ARE REQUESTED TO REPORT OBSERVATIONS TO THE
    PIARCO CONTROL TOWER. 10 OCT 10:00 2017 UNTIL 11 JAN 03:59
    2018. CREATED: 09 OCT 20:07 2017

TTPP A1539/17 WIP AT WASA CARONI WATER TREATMENT PLANT 1000M
    SOUTH OF RWY 10/28 CENTRELINE. 80 TON CRANE IN OPERATION
    WITH BOOM HEIGHT OF 153M. DLY: 1200 - 2200, 11 OCT 12:00
    2017 UNTIL 31 OCT 22:00 2017. CREATED: 11 OCT 16:53 2017

TTPP F0016/07 [DEFENSE ENERGY SUPPORT CENTER ADVISORY] FUEL AVAILABILITY
    NOT AVAILABLE: CONTRACTOR PLACED ON QUALITY HOLD DUE TO NONCOMPLIANCE
    OF SAMPLE SUBMISSION. 12 JUL 20:18 2020 UNTIL 01 AUG 21:18
    2020

---------------------------------------------------------------------------